Time;durP1;ratioP1;P1;durP2;ratioP2;P2;SDS_P1;SDS_P2;PMS_P1;PMS_P2;Temp;Humidity;BMP_temperature;BMP_pressure;BME280_temperature;BME280_humidity;BME280_pressure;Samples;Min_cycle;Max_cycle;Signal;HPM_P1;HPM_P2
2023/12/24 00:01:10;;;;;;;14.18;3.55;;;;;;;;;;4991535;28;20053;-73
2023/12/24 00:03:37;;;;;;;16.52;3.95;;;;;;;;;;4964235;28;20038;-73
2023/12/24 00:06:04;;;;;;;17.55;3.97;;;;;;;;;;4994776;28;20400;-73
2023/12/24 00:08:31;;;;;;;20.17;4.28;;;;;;;;;;4994509;28;20459;-74
2023/12/24 00:10:57;;;;;;;17.45;3.65;;;;;;;;;;4991480;28;20057;-74
2023/12/24 00:13:24;;;;;;;16.40;3.97;;;;;;;;;;4982331;28;20437;-74
2023/12/24 00:15:50;;;;;;;16.45;4.00;;;;;;;;;;4985414;28;20137;-73
2023/12/24 00:18:16;;;;;;;16.58;3.53;;;;;;;;;;4979649;28;20488;-74
2023/12/24 00:20:42;;;;;;;23.23;4.63;;;;;;;;;;4994058;28;20046;-73
2023/12/24 00:23:09;;;;;;;16.45;3.92;;;;;;;;;;4994763;28;20130;-73
2023/12/24 00:25:35;;;;;;;21.35;4.03;;;;;;;;;;4994501;28;20050;-74
2023/12/24 00:28:02;;;;;;;16.65;4.05;;;;;;;;;;4994532;28;20409;-74
2023/12/24 00:30:28;;;;;;;15.93;4.47;;;;;;;;;;4991216;28;20122;-74
2023/12/24 00:32:57;;;;;;;18.48;4.25;;;;;;;;;;4981296;28;20053;-73
2023/12/24 00:35:23;;;;;;;16.73;4.43;;;;;;;;;;4960986;28;20161;-73
2023/12/24 00:37:50;;;;;;;20.92;4.30;;;;;;;;;;4977395;28;20038;-73
2023/12/24 00:40:16;;;;;;;15.60;4.25;;;;;;;;;;4994486;28;20050;-74
2023/12/24 00:42:42;;;;;;;17.75;3.83;;;;;;;;;;4977298;28;20459;-73
2023/12/24 00:45:09;;;;;;;16.05;4.35;;;;;;;;;;4994353;28;20050;-73
2023/12/24 00:47:35;;;;;;;16.45;4.00;;;;;;;;;;4994344;28;20394;-73
2023/12/24 00:50:01;;;;;;;16.02;3.47;;;;;;;;;;4994023;28;20050;-73
2023/12/24 00:52:27;;;;;;;19.10;3.60;;;;;;;;;;4993584;28;20419;-74
2023/12/24 00:54:53;;;;;;;17.80;3.97;;;;;;;;;;4971621;28;20123;-73
2023/12/24 00:57:19;;;;;;;14.90;3.80;;;;;;;;;;4974046;28;20125;-74
2023/12/24 00:59:45;;;;;;;18.05;4.57;;;;;;;;;;4974279;28;20081;-73
2023/12/24 01:02:12;;;;;;;14.75;3.60;;;;;;;;;;4993756;28;20488;-73
2023/12/24 01:04:38;;;;;;;13.93;3.97;;;;;;;;;;4994301;28;20619;-74
2023/12/24 01:07:04;;;;;;;15.85;3.80;;;;;;;;;;4993573;28;20046;-74
2023/12/24 01:09:30;;;;;;;14.98;3.58;;;;;;;;;;4987773;28;20074;-74
2023/12/24 01:11:56;;;;;;;15.88;3.78;;;;;;;;;;4978591;28;20092;-73
2023/12/24 01:14:22;;;;;;;17.90;3.70;;;;;;;;;;4993342;28;20427;-74
2023/12/24 01:16:48;;;;;;;15.88;3.88;;;;;;;;;;4983280;28;20046;-73
2023/12/24 01:19:14;;;;;;;17.88;3.80;;;;;;;;;;4979709;28;20050;-73
2023/12/24 01:21:41;;;;;;;17.35;3.80;;;;;;;;;;4975899;28;20078;-74
2023/12/24 01:24:07;;;;;;;15.10;3.10;;;;;;;;;;4990428;28;20047;-74
2023/12/24 01:26:35;;;;;;;12.77;3.78;;;;;;;;;;4981673;28;20534;-73
2023/12/24 01:29:01;;;;;;;18.55;3.72;;;;;;;;;;4991359;28;20447;-73
2023/12/24 01:31:27;;;;;;;15.98;3.65;;;;;;;;;;4990871;28;20066;-73
2023/12/24 01:33:53;;;;;;;13.07;2.88;;;;;;;;;;4987384;28;20050;-74
2023/12/24 01:36:19;;;;;;;16.05;3.60;;;;;;;;;;4972152;28;20414;-74
2023/12/24 01:38:46;;;;;;;12.27;3.22;;;;;;;;;;4985579;28;20133;-74
2023/12/24 01:41:12;;;;;;;13.38;3.40;;;;;;;;;;4984463;28;20395;-73
2023/12/24 01:43:41;;;;;;;15.73;3.40;;;;;;;;;;4983176;28;20476;-74
2023/12/24 01:46:08;;;;;;;17.17;3.78;;;;;;;;;;4982426;28;22272;-74
2023/12/24 01:48:34;;;;;;;16.30;3.42;;;;;;;;;;4984531;28;20177;-74
2023/12/24 01:51:00;;;;;;;14.88;3.25;;;;;;;;;;4967038;28;20377;-74
2023/12/24 01:53:27;;;;;;;14.98;3.60;;;;;;;;;;4983529;28;20547;-74
2023/12/24 01:55:54;;;;;;;12.82;3.60;;;;;;;;;;4984655;28;20079;-74
2023/12/24 01:58:20;;;;;;;15.60;3.20;;;;;;;;;;4966576;28;20042;-74
2023/12/24 02:00:49;;;;;;;12.88;3.50;;;;;;;;;;4982548;28;20057;-74
2023/12/24 02:03:16;;;;;;;14.10;3.30;;;;;;;;;;4983027;28;20042;-74
2023/12/24 02:05:44;;;;;;;15.60;2.92;;;;;;;;;;4982306;28;20061;-74
2023/12/24 02:08:12;;;;;;;12.40;2.80;;;;;;;;;;4985175;28;20109;-74
2023/12/24 02:10:38;;;;;;;13.30;3.25;;;;;;;;;;4985392;28;20121;-74
2023/12/24 02:13:04;;;;;;;14.45;2.55;;;;;;;;;;4983454;28;20141;-74
2023/12/24 02:15:30;;;;;;;13.52;2.20;;;;;;;;;;4974076;28;20101;-74
2023/12/24 02:17:56;;;;;;;12.07;2.40;;;;;;;;;;4984908;28;20074;-74
2023/12/24 02:20:25;;;;;;;8.07;1.88;;;;;;;;;;4989420;28;20517;-73
2023/12/24 02:22:51;;;;;;;13.10;2.03;;;;;;;;;;4987832;28;20081;-73
2023/12/24 02:25:17;;;;;;;8.57;1.80;;;;;;;;;;4984815;28;20124;-74
2023/12/24 02:27:49;;;;;;;11.18;2.20;;;;;;;;;;4992513;28;20552;-74
2023/12/24 02:30:34;;;;;;;11.50;1.60;;;;;;;;;;4992591;28;20121;-74
2023/12/24 02:33:02;;;;;;;9.18;2.20;;;;;;;;;;4992882;28;20047;-74
2023/12/24 02:35:31;;;;;;;7.90;1.90;;;;;;;;;;4993133;28;20078;-73
2023/12/24 02:37:57;;;;;;;9.65;1.90;;;;;;;;;;4993024;28;20052;-73
2023/12/24 02:40:23;;;;;;;6.57;1.52;;;;;;;;;;4993138;28;20046;-74
2023/12/24 02:42:49;;;;;;;6.35;1.48;;;;;;;;;;4992813;28;20053;-73
2023/12/24 02:45:15;;;;;;;6.15;1.50;;;;;;;;;;4990906;28;20163;-73
2023/12/24 02:47:41;;;;;;;7.13;1.50;;;;;;;;;;4973660;28;20050;-73
2023/12/24 02:50:07;;;;;;;6.35;1.50;;;;;;;;;;4983113;28;20096;-73
2023/12/24 02:52:33;;;;;;;7.43;1.85;;;;;;;;;;4993014;28;20046;-73
2023/12/24 02:54:59;;;;;;;7.53;1.63;;;;;;;;;;4993747;28;20547;-73
2023/12/24 02:57:26;;;;;;;7.68;1.98;;;;;;;;;;4996310;28;20052;-74
2023/12/24 02:59:52;;;;;;;6.45;1.90;;;;;;;;;;4994820;28;20504;-73
2023/12/24 03:02:18;;;;;;;4.88;2.00;;;;;;;;;;4991794;28;20050;-74
2023/12/24 03:04:44;;;;;;;7.60;2.20;;;;;;;;;;4994905;28;20494;-73
2023/12/24 03:07:10;;;;;;;9.30;2.22;;;;;;;;;;4988581;28;20392;-74
2023/12/24 03:09:36;;;;;;;7.25;1.90;;;;;;;;;;4990260;28;20097;-73
2023/12/24 03:12:02;;;;;;;6.65;1.80;;;;;;;;;;4989371;28;20047;-74
2023/12/24 03:14:28;;;;;;;6.57;1.80;;;;;;;;;;4980870;28;20048;-74
2023/12/24 03:16:55;;;;;;;10.13;2.15;;;;;;;;;;4980893;28;20043;-74
2023/12/24 03:19:21;;;;;;;7.07;2.08;;;;;;;;;;4943519;28;20134;-74
2023/12/24 03:21:47;;;;;;;7.05;1.80;;;;;;;;;;4959736;28;20051;-73
2023/12/24 03:24:13;;;;;;;8.85;1.50;;;;;;;;;;4983043;28;20070;-74
2023/12/24 03:26:39;;;;;;;7.80;1.60;;;;;;;;;;4989665;28;20492;-74
2023/12/24 03:29:05;;;;;;;5.45;1.50;;;;;;;;;;4980621;28;20393;-73
2023/12/24 03:31:31;;;;;;;5.50;1.60;;;;;;;;;;4976294;28;20053;-73
2023/12/24 03:33:57;;;;;;;5.95;1.45;;;;;;;;;;4994580;28;20050;-74
2023/12/24 03:36:23;;;;;;;5.68;1.50;;;;;;;;;;4986395;28;20478;-73
2023/12/24 03:38:50;;;;;;;6.82;1.60;;;;;;;;;;4971701;28;20105;-74
2023/12/24 03:41:16;;;;;;;7.45;1.60;;;;;;;;;;4995266;28;20455;-74
2023/12/24 03:43:42;;;;;;;5.22;1.60;;;;;;;;;;4969075;28;20046;-74
2023/12/24 03:46:08;;;;;;;5.32;1.77;;;;;;;;;;4995416;28;20058;-74
2023/12/24 03:48:36;;;;;;;6.20;1.98;;;;;;;;;;4977732;28;20054;-74
2023/12/24 03:51:03;;;;;;;6.13;1.80;;;;;;;;;;4978199;28;20046;-74
2023/12/24 03:53:29;;;;;;;6.32;1.50;;;;;;;;;;4995566;28;20097;-74
2023/12/24 03:55:55;;;;;;;4.93;1.73;;;;;;;;;;4988464;28;20053;-74
2023/12/24 03:58:21;;;;;;;5.85;1.60;;;;;;;;;;4994426;28;20038;-74
2023/12/24 04:00:47;;;;;;;5.22;1.73;;;;;;;;;;4975973;28;20492;-74
2023/12/24 04:03:13;;;;;;;5.10;1.65;;;;;;;;;;4981758;28;20413;-73
2023/12/24 04:05:39;;;;;;;7.20;2.15;;;;;;;;;;4976053;28;20054;-74
2023/12/24 04:08:05;;;;;;;6.22;2.03;;;;;;;;;;4975754;28;20050;-73
2023/12/24 04:10:31;;;;;;;6.93;2.17;;;;;;;;;;4982592;28;20054;-74
2023/12/24 04:13:04;;;;;;;7.53;2.20;;;;;;;;;;4975887;28;20055;-73
2023/12/24 04:15:30;;;;;;;4.00;1.70;;;;;;;;;;4986046;28;20192;-74
2023/12/24 04:17:56;;;;;;;7.78;1.92;;;;;;;;;;4990275;28;20046;-73
2023/12/24 04:20:22;;;;;;;4.50;1.95;;;;;;;;;;4991795;28;20086;-73
2023/12/24 04:22:48;;;;;;;5.75;1.90;;;;;;;;;;4994665;28;20058;-74
2023/12/24 04:25:14;;;;;;;5.45;1.95;;;;;;;;;;4993949;28;20038;-74
2023/12/24 04:27:40;;;;;;;5.78;1.70;;;;;;;;;;4992474;28;20057;-74
2023/12/24 04:30:07;;;;;;;4.63;1.77;;;;;;;;;;4987529;28;20043;-74
2023/12/24 04:32:33;;;;;;;5.10;1.70;;;;;;;;;;4984865;28;20046;-74
2023/12/24 04:34:59;;;;;;;5.93;1.38;;;;;;;;;;4994611;28;20081;-74
2023/12/24 04:37:25;;;;;;;6.50;1.45;;;;;;;;;;4994660;28;20104;-74
2023/12/24 04:39:51;;;;;;;3.60;1.20;;;;;;;;;;4994853;28;20676;-74
2023/12/24 04:42:17;;;;;;;5.60;1.50;;;;;;;;;;4995100;28;20053;-74
2023/12/24 04:44:43;;;;;;;4.00;1.25;;;;;;;;;;4977059;28;20104;-74
2023/12/24 04:47:09;;;;;;;3.00;1.20;;;;;;;;;;4977504;28;20488;-74
2023/12/24 04:49:35;;;;;;;4.50;1.33;;;;;;;;;;4993806;28;20046;-74
2023/12/24 04:52:01;;;;;;;3.25;1.20;;;;;;;;;;4994540;28;20050;-73
2023/12/24 04:54:27;;;;;;;4.43;1.30;;;;;;;;;;4977373;28;20116;-74
2023/12/24 04:56:54;;;;;;;5.15;1.23;;;;;;;;;;4994053;28;20044;-73
2023/12/24 04:59:20;;;;;;;6.18;1.27;;;;;;;;;;4976644;28;20046;-74
2023/12/24 05:01:46;;;;;;;2.75;0.90;;;;;;;;;;4994428;28;20046;-74
2023/12/24 05:04:12;;;;;;;2.90;1.20;;;;;;;;;;4994339;28;20047;-74
2023/12/24 05:06:38;;;;;;;4.45;1.27;;;;;;;;;;4993582;28;20054;-74
2023/12/24 05:09:04;;;;;;;4.43;1.20;;;;;;;;;;4994025;28;20509;-74
2023/12/24 05:11:30;;;;;;;3.72;1.15;;;;;;;;;;4989353;28;20045;-74
2023/12/24 05:13:56;;;;;;;4.57;1.25;;;;;;;;;;4994108;28;20049;-74
2023/12/24 05:16:22;;;;;;;2.45;1.00;;;;;;;;;;4993484;28;20109;-74
2023/12/24 05:18:49;;;;;;;3.30;1.30;;;;;;;;;;4989388;28;20054;-74
2023/12/24 05:21:15;;;;;;;4.15;1.20;;;;;;;;;;4993757;28;20104;-74
2023/12/24 05:23:42;;;;;;;2.80;1.25;;;;;;;;;;4980361;28;20046;-74
2023/12/24 05:26:08;;;;;;;4.28;1.10;;;;;;;;;;4976316;28;20401;-74
2023/12/24 05:28:34;;;;;;;3.83;1.30;;;;;;;;;;4988593;28;20042;-74
2023/12/24 05:31:00;;;;;;;3.17;1.20;;;;;;;;;;4992433;28;20053;-74
2023/12/24 05:33:26;;;;;;;2.95;1.20;;;;;;;;;;4991081;28;20431;-74
2023/12/24 05:35:52;;;;;;;4.40;1.45;;;;;;;;;;4991960;28;20108;-74
2023/12/24 05:38:19;;;;;;;3.50;1.30;;;;;;;;;;4974846;28;20046;-74
2023/12/24 05:40:45;;;;;;;4.50;1.45;;;;;;;;;;4992673;28;20058;-74
2023/12/24 05:43:11;;;;;;;4.43;1.70;;;;;;;;;;4981467;28;20094;-74
2023/12/24 05:45:37;;;;;;;4.03;1.50;;;;;;;;;;4989483;28;20058;-74
2023/12/24 05:48:03;;;;;;;6.93;1.50;;;;;;;;;;4974700;28;20053;-73
2023/12/24 05:50:30;;;;;;;3.63;1.40;;;;;;;;;;4991612;28;20054;-74
2023/12/24 05:52:56;;;;;;;4.75;1.70;;;;;;;;;;4989456;28;20046;-74
2023/12/24 05:55:22;;;;;;;4.10;1.50;;;;;;;;;;4992869;28;20050;-74
2023/12/24 05:57:48;;;;;;;5.95;1.50;;;;;;;;;;4992425;28;20078;-74
2023/12/24 06:00:15;;;;;;;4.20;1.55;;;;;;;;;;4988526;28;20050;-74
2023/12/24 06:02:41;;;;;;;4.15;1.67;;;;;;;;;;4992661;28;20534;-74
2023/12/24 06:05:07;;;;;;;3.88;1.50;;;;;;;;;;4992660;28;20082;-74
2023/12/24 06:07:33;;;;;;;5.45;1.80;;;;;;;;;;4982245;28;20056;-74
2023/12/24 06:09:59;;;;;;;5.13;1.73;;;;;;;;;;4985004;28;20046;-74
2023/12/24 06:12:25;;;;;;;3.65;1.40;;;;;;;;;;4979123;28;20053;-74
2023/12/24 06:14:51;;;;;;;5.38;1.98;;;;;;;;;;4980054;28;20062;-74
2023/12/24 06:17:17;;;;;;;5.07;1.80;;;;;;;;;;4974090;28;20050;-74
2023/12/24 06:19:44;;;;;;;5.40;1.80;;;;;;;;;;4988253;28;20035;-74
2023/12/24 06:22:10;;;;;;;6.00;1.92;;;;;;;;;;4990078;28;20047;-74
2023/12/24 06:24:36;;;;;;;6.05;2.20;;;;;;;;;;4970855;28;20046;-74
2023/12/24 06:27:02;;;;;;;8.23;2.10;;;;;;;;;;4983144;28;20050;-74
2023/12/24 06:29:28;;;;;;;4.88;2.20;;;;;;;;;;4985371;28;20129;-74
2023/12/24 06:31:57;;;;;;;6.25;2.20;;;;;;;;;;4991826;28;20042;-74
2023/12/24 06:34:23;;;;;;;7.13;2.30;;;;;;;;;;4996890;28;20046;-74
2023/12/24 06:36:49;;;;;;;6.35;2.58;;;;;;;;;;4995487;28;20130;-74
2023/12/24 06:39:15;;;;;;;5.10;2.50;;;;;;;;;;4977638;28;20547;-74
2023/12/24 06:41:41;;;;;;;7.97;2.75;;;;;;;;;;4977656;28;20046;-74
2023/12/24 06:44:07;;;;;;;8.02;3.08;;;;;;;;;;4977812;28;20046;-73
2023/12/24 06:46:33;;;;;;;7.80;3.00;;;;;;;;;;4981567;28;20081;-74
2023/12/24 06:48:59;;;;;;;7.07;3.00;;;;;;;;;;4996397;28;20042;-74
2023/12/24 06:51:25;;;;;;;8.85;3.20;;;;;;;;;;4996351;28;20060;-74
2023/12/24 06:53:51;;;;;;;11.50;3.45;;;;;;;;;;4996865;28;20042;-74
2023/12/24 06:56:17;;;;;;;8.77;3.33;;;;;;;;;;4996948;28;20043;-74
2023/12/24 06:58:43;;;;;;;15.57;3.60;;;;;;;;;;4996690;28;20042;-74
2023/12/24 07:01:09;;;;;;;9.63;3.28;;;;;;;;;;4997010;28;20109;-74
2023/12/24 07:03:35;;;;;;;10.57;4.03;;;;;;;;;;4996845;28;20082;-74
2023/12/24 07:06:01;;;;;;;10.65;3.70;;;;;;;;;;4975777;28;20057;-74
2023/12/24 07:08:29;;;;;;;14.50;4.50;;;;;;;;;;4995750;28;20053;-74
2023/12/24 07:10:55;;;;;;;12.20;5.15;;;;;;;;;;4985688;28;20419;-74
2023/12/24 07:13:21;;;;;;;18.33;6.00;;;;;;;;;;4989227;28;20078;-74
2023/12/24 07:15:47;;;;;;;18.65;5.88;;;;;;;;;;4985074;28;20081;-74
2023/12/24 07:18:13;;;;;;;18.55;5.60;;;;;;;;;;4994937;28;20093;-74
2023/12/24 07:20:39;;;;;;;22.88;6.05;;;;;;;;;;4991440;28;20452;-74
2023/12/24 07:23:05;;;;;;;23.02;6.57;;;;;;;;;;4981793;28;20051;-73
2023/12/24 07:25:31;;;;;;;19.23;6.32;;;;;;;;;;4991264;28;20471;-74
2023/12/24 07:27:57;;;;;;;20.77;7.07;;;;;;;;;;4968566;28;20069;-74
2023/12/24 07:30:23;;;;;;;21.90;6.90;;;;;;;;;;4984525;28;20043;-74
2023/12/24 07:32:49;;;;;;;14.80;5.30;;;;;;;;;;4985713;28;20054;-74
2023/12/24 07:35:16;;;;;;;18.98;4.70;;;;;;;;;;4977444;28;20053;-74
2023/12/24 07:37:42;;;;;;;18.33;5.97;;;;;;;;;;4990232;28;20039;-74
2023/12/24 07:40:09;;;;;;;13.13;4.78;;;;;;;;;;4984092;28;20049;-74
2023/12/24 07:42:35;;;;;;;16.05;5.63;;;;;;;;;;4977568;28;20400;-74
2023/12/24 07:45:03;;;;;;;17.42;5.80;;;;;;;;;;4993901;28;20047;-74
2023/12/24 07:47:29;;;;;;;17.17;5.63;;;;;;;;;;4994029;28;20077;-74
2023/12/24 07:49:55;;;;;;;16.15;5.72;;;;;;;;;;4977463;28;20046;-74
2023/12/24 07:52:21;;;;;;;18.92;5.75;;;;;;;;;;4990708;28;20042;-74
2023/12/24 07:54:47;;;;;;;12.45;5.28;;;;;;;;;;4989628;28;20129;-74
2023/12/24 07:57:13;;;;;;;16.75;6.35;;;;;;;;;;4983803;28;20068;-74
2023/12/24 07:59:39;;;;;;;15.60;5.50;;;;;;;;;;4986698;28;20034;-74
2023/12/24 08:02:05;;;;;;;18.45;5.90;;;;;;;;;;4987239;28;20421;-73
2023/12/24 08:04:32;;;;;;;18.73;6.05;;;;;;;;;;4993517;28;20484;-74
2023/12/24 08:06:58;;;;;;;19.05;6.15;;;;;;;;;;4989717;28;20448;-74
2023/12/24 08:09:25;;;;;;;17.55;5.30;;;;;;;;;;4982878;28;20050;-74
2023/12/24 08:11:52;;;;;;;14.40;5.25;;;;;;;;;;4976700;28;20065;-74
2023/12/24 08:14:18;;;;;;;15.88;5.90;;;;;;;;;;4975463;28;20440;-74
2023/12/24 08:16:44;;;;;;;17.02;5.70;;;;;;;;;;4965693;28;20061;-74
2023/12/24 08:19:10;;;;;;;16.33;5.53;;;;;;;;;;4987740;28;20046;-74
2023/12/24 08:21:36;;;;;;;17.92;6.13;;;;;;;;;;4993337;28;20173;-74
2023/12/24 08:24:02;;;;;;;17.85;5.55;;;;;;;;;;4993349;28;20054;-74
2023/12/24 08:26:28;;;;;;;18.08;5.55;;;;;;;;;;4993815;28;20054;-74
2023/12/24 08:28:54;;;;;;;25.20;6.60;;;;;;;;;;4993309;28;20042;-74
2023/12/24 08:31:20;;;;;;;18.83;5.88;;;;;;;;;;4965317;28;20065;-74
2023/12/24 08:33:47;;;;;;;21.30;6.40;;;;;;;;;;4974979;28;20046;-74
2023/12/24 08:36:13;;;;;;;23.50;5.80;;;;;;;;;;4979703;28;20378;-74
2023/12/24 08:38:39;;;;;;;22.80;6.75;;;;;;;;;;4986485;28;20043;-74
2023/12/24 08:41:05;;;;;;;24.40;6.90;;;;;;;;;;4974925;28;20064;-74
2023/12/24 08:43:32;;;;;;;27.67;6.68;;;;;;;;;;4958204;28;20078;-74
2023/12/24 08:46:00;;;;;;;30.60;6.80;;;;;;;;;;4991878;28;20050;-74
2023/12/24 08:48:26;;;;;;;21.50;6.55;;;;;;;;;;4981777;28;20415;-74
2023/12/24 08:50:52;;;;;;;23.10;8.00;;;;;;;;;;4975361;28;20054;-74
2023/12/24 08:53:18;;;;;;;22.48;6.97;;;;;;;;;;4989577;28;20472;-74
2023/12/24 08:55:45;;;;;;;20.98;6.70;;;;;;;;;;4993751;28;20047;-74
2023/12/24 08:58:11;;;;;;;22.10;6.22;;;;;;;;;;4976269;28;20050;-74
2023/12/24 09:00:37;;;;;;;25.25;6.85;;;;;;;;;;4989509;28;20058;-74
2023/12/24 09:03:03;;;;;;;23.33;6.90;;;;;;;;;;4993834;28;20046;-74
2023/12/24 09:05:29;;;;;;;20.13;6.03;;;;;;;;;;4986702;28;20085;-74
2023/12/24 09:07:55;;;;;;;23.73;5.72;;;;;;;;;;4974193;28;20110;-74
2023/12/24 09:10:21;;;;;;;24.40;6.35;;;;;;;;;;4974563;28;20042;-74
2023/12/24 09:12:47;;;;;;;22.85;6.85;;;;;;;;;;4974317;28;20134;-74
2023/12/24 09:15:13;;;;;;;23.55;6.50;;;;;;;;;;4984167;28;20062;-74
2023/12/24 09:17:40;;;;;;;19.55;5.95;;;;;;;;;;4975053;28;20103;-74
2023/12/24 09:20:07;;;;;;;22.27;6.32;;;;;;;;;;4989994;28;20479;-74
2023/12/24 09:22:33;;;;;;;21.52;6.07;;;;;;;;;;4989149;28;20055;-74
2023/12/24 09:24:59;;;;;;;20.30;5.75;;;;;;;;;;4979243;28;20130;-74
2023/12/24 09:27:25;;;;;;;24.27;5.35;;;;;;;;;;4985877;28;20058;-74
2023/12/24 09:29:51;;;;;;;22.23;5.90;;;;;;;;;;4980753;28;20125;-74
2023/12/24 09:32:17;;;;;;;22.98;5.32;;;;;;;;;;4993295;28;20091;-74
2023/12/24 09:34:46;;;;;;;28.48;5.72;;;;;;;;;;4993250;28;20057;-75
2023/12/24 09:37:12;;;;;;;15.68;4.60;;;;;;;;;;4993149;28;20050;-77
2023/12/24 09:39:38;;;;;;;18.55;4.78;;;;;;;;;;4974716;28;20405;-75
2023/12/24 09:42:05;;;;;;;13.18;4.07;;;;;;;;;;4974103;28;20125;-75
2023/12/24 09:44:31;;;;;;;18.90;4.22;;;;;;;;;;4940384;28;20059;-75
2023/12/24 09:46:57;;;;;;;17.02;4.53;;;;;;;;;;4940588;28;20054;-74
2023/12/24 09:49:23;;;;;;;12.82;3.92;;;;;;;;;;4973713;28;20049;-75
2023/12/24 09:51:49;;;;;;;13.38;4.10;;;;;;;;;;4992653;28;20054;-74
2023/12/24 09:54:15;;;;;;;18.77;4.38;;;;;;;;;;4976671;28;20050;-75
2023/12/24 09:56:41;;;;;;;18.13;4.38;;;;;;;;;;4948823;28;20068;-75
2023/12/24 09:59:07;;;;;;;13.00;4.20;;;;;;;;;;4992853;28;20043;-75
2023/12/24 10:01:44;;;;;;;17.52;4.20;;;;;;;;;;4992708;28;20050;-75
2023/12/24 10:04:10;;;;;;;19.05;5.40;;;;;;;;;;4984397;28;20054;-75
2023/12/24 10:06:55;;;;;;;15.65;4.78;;;;;;;;;;4970352;28;20154;-75
2023/12/24 10:09:22;;;;;;;16.10;5.05;;;;;;;;;;4962357;28;20043;-74
2023/12/24 10:12:03;;;;;;;21.73;5.82;;;;;;;;;;4992836;28;20111;-75
2023/12/24 10:14:29;;;;;;;18.13;4.82;;;;;;;;;;4988663;28;20377;-75
2023/12/24 10:16:56;;;;;;;21.60;4.93;;;;;;;;;;4973213;28;20062;-75
2023/12/24 10:19:23;;;;;;;16.83;4.60;;;;;;;;;;4977187;28;20117;-75
2023/12/24 10:22:01;;;;;;;17.55;4.80;;;;;;;;;;4987043;28;20061;-75
2023/12/24 10:24:29;;;;;;;21.98;5.82;;;;;;;;;;4973145;28;20093;-74
2023/12/24 10:27:09;;;;;;;16.60;4.88;;;;;;;;;;4984816;28;20050;-75
2023/12/24 10:29:36;;;;;;;16.10;4.38;;;;;;;;;;4961877;28;20053;-75
2023/12/24 10:32:02;;;;;;;18.38;4.63;;;;;;;;;;4989234;28;20076;-75
2023/12/24 10:34:30;;;;;;;14.93;4.15;;;;;;;;;;4992597;28;20042;-75
2023/12/24 10:36:58;;;;;;;13.52;3.63;;;;;;;;;;4990921;28;20134;-75
2023/12/24 10:39:24;;;;;;;17.75;3.85;;;;;;;;;;4982467;28;20104;-75
2023/12/24 10:41:51;;;;;;;17.45;3.30;;;;;;;;;;4984991;28;20046;-75
2023/12/24 10:44:17;;;;;;;12.82;3.10;;;;;;;;;;4992510;28;20050;-75
2023/12/24 10:46:43;;;;;;;16.83;3.50;;;;;;;;;;4989113;28;20043;-75
2023/12/24 10:49:09;;;;;;;18.33;3.50;;;;;;;;;;4986552;28;20043;-75
2023/12/24 10:51:39;;;;;;;13.00;3.78;;;;;;;;;;4988399;28;20047;-75
2023/12/24 10:54:05;;;;;;;15.35;3.50;;;;;;;;;;4991162;28;20050;-75
2023/12/24 10:56:33;;;;;;;14.85;3.53;;;;;;;;;;4984613;28;20494;-75
2023/12/24 10:59:25;;;;;;;12.90;3.15;;;;;;;;;;4983089;28;20042;-75
2023/12/24 11:01:55;;;;;;;14.38;3.28;;;;;;;;;;4945829;28;20097;-75
2023/12/24 11:04:39;;;;;;;13.73;3.00;;;;;;;;;;4985294;28;20101;-75
2023/12/24 11:07:05;;;;;;;15.25;3.03;;;;;;;;;;4990297;28;20480;-75
2023/12/24 11:09:34;;;;;;;13.95;2.80;;;;;;;;;;4972990;28;20051;-75
2023/12/24 11:12:00;;;;;;;20.60;2.90;;;;;;;;;;4988843;28;20058;-75
2023/12/24 11:14:44;;;;;;;15.63;3.08;;;;;;;;;;4966828;28;20383;-75
2023/12/24 11:17:11;;;;;;;12.30;2.63;;;;;;;;;;4979946;28;20117;-75
2023/12/24 11:19:41;;;;;;;10.45;2.35;;;;;;;;;;4990805;28;20105;-75
2023/12/24 11:22:10;;;;;;;12.00;2.72;;;;;;;;;;4994124;28;20070;-75
2023/12/24 11:24:44;;;;;;;15.25;2.67;;;;;;;;;;4994700;28;20073;-76
2023/12/24 11:27:10;;;;;;;17.38;2.88;;;;;;;;;;4995026;28;20058;-75
2023/12/24 11:29:43;;;;;;;15.45;2.95;;;;;;;;;;4992213;28;20228;-75
2023/12/24 11:32:24;;;;;;;15.13;3.95;;;;;;;;;;4967669;28;20054;-75
2023/12/24 11:34:57;;;;;;;18.40;3.05;;;;;;;;;;4996833;28;20121;-75
2023/12/24 11:37:27;;;;;;;16.25;2.75;;;;;;;;;;4975726;28;20097;-75
2023/12/24 11:40:03;;;;;;;16.65;2.75;;;;;;;;;;4975812;28;20058;-75
2023/12/24 11:43:01;;;;;;;12.18;2.65;;;;;;;;;;4975954;28;20054;-75
2023/12/24 11:45:29;;;;;;;12.80;2.50;;;;;;;;;;4964376;28;20066;-75
2023/12/24 11:47:55;;;;;;;14.73;2.60;;;;;;;;;;4976145;28;20129;-75
2023/12/24 11:50:22;;;;;;;13.98;2.50;;;;;;;;;;4958557;28;20405;-75
2023/12/24 11:52:49;;;;;;;16.48;2.95;;;;;;;;;;4975668;28;20141;-75
2023/12/24 11:55:16;;;;;;;8.43;2.03;;;;;;;;;;4958079;28;20054;-75
2023/12/24 11:57:42;;;;;;;15.90;3.88;;;;;;;;;;4975694;28;20070;-75
2023/12/24 12:00:13;;;;;;;15.82;3.38;;;;;;;;;;4987625;28;20365;-75
2023/12/24 12:02:39;;;;;;;;;;;;;;;;;;4991167;28;20074;-75
2023/12/24 12:05:06;;;;;;;12.35;2.60;;;;;;;;;;4992750;28;19953;-75
2023/12/24 12:07:32;;;;;;;15.77;3.15;;;;;;;;;;4994524;28;20046;-75
2023/12/24 12:09:58;;;;;;;14.15;2.83;;;;;;;;;;4994256;28;20046;-75
2023/12/24 12:12:24;;;;;;;12.15;2.88;;;;;;;;;;4975401;28;20055;-75
2023/12/24 12:14:50;;;;;;;13.38;2.83;;;;;;;;;;4975399;28;20058;-75
2023/12/24 12:17:16;;;;;;;13.27;2.55;;;;;;;;;;4983961;28;20089;-75
2023/12/24 12:19:42;;;;;;;13.60;3.40;;;;;;;;;;4991094;28;20053;-75
2023/12/24 12:22:09;;;;;;;15.52;2.90;;;;;;;;;;4976738;28;20094;-75
2023/12/24 12:24:35;;;;;;;15.43;2.92;;;;;;;;;;4976881;28;20058;-75
2023/12/24 12:27:01;;;;;;;11.18;2.70;;;;;;;;;;4975917;28;20050;-75
2023/12/24 12:29:27;;;;;;;14.80;2.80;;;;;;;;;;4980094;28;20499;-75
2023/12/24 12:31:57;;;;;;;10.52;2.35;;;;;;;;;;4972341;28;20453;-75
2023/12/24 12:34:23;;;;;;;13.88;2.70;;;;;;;;;;4975163;28;20081;-75
2023/12/24 12:36:49;;;;;;;13.00;2.95;;;;;;;;;;4987038;28;20057;-75
2023/12/24 12:39:16;;;;;;;11.07;2.88;;;;;;;;;;4985783;28;20046;-75
2023/12/24 12:41:42;;;;;;;13.63;2.92;;;;;;;;;;4993954;28;20448;-75
2023/12/24 12:44:08;;;;;;;12.55;3.13;;;;;;;;;;4994187;28;20484;-74
2023/12/24 12:46:35;;;;;;;12.10;2.42;;;;;;;;;;4993238;28;20134;-75
2023/12/24 12:49:01;;;;;;;12.00;2.63;;;;;;;;;;4993716;28;20046;-75
2023/12/24 12:51:27;;;;;;;14.02;3.00;;;;;;;;;;4993927;28;20089;-75
2023/12/24 12:53:53;;;;;;;11.07;2.58;;;;;;;;;;4992614;28;20118;-75
2023/12/24 12:56:19;;;;;;;13.85;2.45;;;;;;;;;;4993933;28;20038;-75
2023/12/24 12:58:54;;;;;;;11.60;2.47;;;;;;;;;;4993716;28;20380;-75
2023/12/24 13:01:23;;;;;;;11.80;2.78;;;;;;;;;;4993728;28;20121;-75
2023/12/24 13:03:58;;;;;;;12.85;2.65;;;;;;;;;;4975958;28;20062;-75
2023/12/24 13:06:24;;;;;;;11.55;2.20;;;;;;;;;;4993157;28;20468;-75
2023/12/24 13:08:50;;;;;;;15.88;2.90;;;;;;;;;;4992885;28;20073;-75
2023/12/24 13:11:20;;;;;;;16.67;3.00;;;;;;;;;;4974411;28;20043;-75
2023/12/24 13:13:46;;;;;;;12.73;2.60;;;;;;;;;;4974760;28;20134;-75
2023/12/24 13:16:12;;;;;;;18.48;3.40;;;;;;;;;;4992847;28;20117;-75
2023/12/24 13:18:39;;;;;;;14.80;3.03;;;;;;;;;;4983549;28;20085;-75
2023/12/24 13:21:07;;;;;;;16.85;3.17;;;;;;;;;;4983949;28;20145;-74
2023/12/24 13:23:34;;;;;;;14.45;3.22;;;;;;;;;;4988620;28;20062;-75
2023/12/24 13:26:03;;;;;;;13.18;3.33;;;;;;;;;;4975960;28;20377;-75
2023/12/24 13:28:29;;;;;;;13.63;3.28;;;;;;;;;;4988950;28;20061;-75
2023/12/24 13:30:55;;;;;;;15.40;3.63;;;;;;;;;;4992566;28;20066;-75
2023/12/24 13:33:21;;;;;;;13.05;2.88;;;;;;;;;;4992068;28;20058;-75
2023/12/24 13:35:48;;;;;;;13.80;2.70;;;;;;;;;;4991719;28;20126;-75
2023/12/24 13:38:17;;;;;;;16.45;3.60;;;;;;;;;;4991233;28;20042;-74
2023/12/24 13:40:44;;;;;;;15.35;3.30;;;;;;;;;;4974076;28;20046;-74
2023/12/24 13:43:11;;;;;;;13.30;3.38;;;;;;;;;;4986064;28;20046;-75
2023/12/24 13:45:37;;;;;;;17.70;3.47;;;;;;;;;;4992852;28;20096;-75
2023/12/24 13:48:03;;;;;;;19.02;3.50;;;;;;;;;;4992783;28;20050;-75
2023/12/24 13:50:33;;;;;;;14.98;3.55;;;;;;;;;;4992089;28;20061;-75
2023/12/24 13:52:59;;;;;;;14.63;3.03;;;;;;;;;;4990813;28;20547;-75
2023/12/24 13:55:28;;;;;;;14.38;3.47;;;;;;;;;;4986304;28;20089;-75
2023/12/24 13:57:56;;;;;;;14.57;4.68;;;;;;;;;;4985446;28;20046;-75
2023/12/24 14:00:22;;;;;;;15.05;3.10;;;;;;;;;;4987967;28;20113;-75
2023/12/24 14:02:48;;;;;;;14.18;2.40;;;;;;;;;;4989955;28;20085;-75
2023/12/24 14:05:14;;;;;;;14.02;2.42;;;;;;;;;;4992613;28;20046;-75
2023/12/24 14:07:43;;;;;;;12.57;2.10;;;;;;;;;;4992352;28;20071;-75
2023/12/24 14:10:09;;;;;;;13.13;3.00;;;;;;;;;;4991315;28;20080;-75
2023/12/24 14:12:35;;;;;;;10.48;2.10;;;;;;;;;;4992134;28;20132;-75
2023/12/24 14:15:06;;;;;;;9.73;1.77;;;;;;;;;;4991758;28;20066;-75
2023/12/24 14:17:32;;;;;;;9.10;2.03;;;;;;;;;;4992341;28;20049;-75
2023/12/24 14:19:58;;;;;;;9.13;1.88;;;;;;;;;;4989907;28;20093;-75
2023/12/24 14:22:24;;;;;;;7.70;1.88;;;;;;;;;;4985695;28;20070;-75
2023/12/24 14:24:50;;;;;;;9.70;2.00;;;;;;;;;;4983592;28;20439;-75
2023/12/24 14:27:18;;;;;;;8.18;1.73;;;;;;;;;;4987637;28;20129;-75
2023/12/24 14:29:45;;;;;;;11.48;1.80;;;;;;;;;;4991662;28;20495;-75
2023/12/24 14:32:11;;;;;;;5.53;1.30;;;;;;;;;;4955976;28;20053;-75